Zenia, California
Current Conditions -  °F | °C
As of 12:35 PM on Sunday 21 Dec 2014 (Local Time) from KFOT Reporting Station
Overcast Overcast  
Wind Chill: 57°   Ceiling: 200
Heat Index: 57°   Visibility: 0.75mi
Dew Point: 57°   Wind: 5mph
Humidity: 100%   Direction: 320°NW
Pressure: 30.3"   Gusts: NA
Location:  40.21°N, 123.49°W
Report Text: KFOT 212035Z AUTO 32004KT 3/4SM OVC002 14/14 A3030 RMK AO1
Loading
Personal Weather Stations






























Interactive Weather Map New forecast layout! Learn more

10-Day Weather Forecast

Advertisements
Track Severe Weather on mobile